Pagrindinis puslapis
METAR-TAF:

METAR-TAF

Oro uostai :

NWS Office

Ponapė, Mikronezija

platuma: 06-58N, ilguma: 158-13E, Aukštis: 39 m

Dabartinis oras

Ataskaita buvo paskelbta 27 minutes, ne 09:55 UTC
Vėjas 3 kt iš Rytų/Pietryčių
Temperatūra 26°C
Drėgmė 89%
Slėgis 1012 hPa
Matomumas: 24.1 km
Išsisklaidę debesys ne aukštis 1800 ft
Apsiniaukę ne aukštis 30000 ft

METAR: PTTP 220955Z 12003KT 15SM SCT018 OVC300 26/24 A2987 RMK SLP115 T02680243

Laikas: 21:22 (10:22 UTC)


TAF: trūkstamas

Orai ataskaitas ir orų prognozės (METAR, TAF).

turimą stotys yra geltonos ir raudonos taškus žemėlapyje.

Perkelti pele per norėdami pamatyti stoties vardą.

Tada spustelėkite, norėdami matyti oro stebėjimo ir prognozės.

Norėdami pakeisti žemėlapį: spustelėkite ant žalios mygtukų su juodo kryžiaus žemyn,; žalią mygtuką su brūkšneliu, jei norite nutolinti; arba žalių rodyklių gretimoms žemėlapius.


METAR-TAF: